createdAt,value
2022-10-13T00:00:52.418Z,100101.34
2022-10-13T00:01:53.977Z,100097.16
2022-10-13T00:02:55.472Z,100096.63
2022-10-13T00:03:57.027Z,100096.53
2022-10-13T00:04:58.457Z,100096.53
2022-10-13T00:06:00.123Z,100092.06
2022-10-13T00:07:01.538Z,100090.47
2022-10-13T00:08:02.889Z,100097.28
2022-10-13T00:09:05.641Z,100086.47
2022-10-13T00:10:07.686Z,100081.78
2022-10-13T00:11:17.865Z,100087.94
2022-10-13T00:12:19.655Z,100092.75
2022-10-13T00:13:21.324Z,100095.38
2022-10-13T00:14:22.640Z,100096.28
2022-10-13T00:15:24.098Z,100098.22
2022-10-13T00:16:25.972Z,100097.97
2022-10-13T00:17:27.474Z,100087.41
2022-10-13T00:18:29.006Z,100095.31
2022-10-13T00:19:31.657Z,100095.38
2022-10-13T00:20:33.285Z,100100.59
2022-10-13T00:21:34.736Z,100097.91
2022-10-13T00:22:36.157Z,100097.00
2022-10-13T00:23:37.894Z,100090.91
2022-10-13T00:24:39.333Z,100093.16
2022-10-13T00:25:43.607Z,100099.66
2022-10-13T00:26:45.029Z,100091.31
2022-10-13T00:27:53.658Z,100098.09
2022-10-13T00:28:56.510Z,100095.47
2022-10-13T00:29:58.004Z,100093.84
2022-10-13T00:30:59.384Z,100094.16
2022-10-13T00:32:00.908Z,100097.09
2022-10-13T00:33:02.450Z,100092.94
2022-10-13T00:34:03.876Z,100096.63
2022-10-13T00:35:05.386Z,100094.16
2022-10-13T00:36:06.890Z,100091.78
2022-10-13T00:37:08.445Z,100091.09
2022-10-13T00:38:10.674Z,100091.31
2022-10-13T00:39:12.300Z,100090.47
2022-10-13T00:40:13.705Z,100093.03
2022-10-13T00:41:15.305Z,100087.72
2022-10-13T00:42:17.641Z,100088.56
2022-10-13T00:43:46.848Z,100092.88
2022-10-13T00:45:20.666Z,100090.31
2022-10-13T00:46:23.640Z,100084.28
2022-10-13T00:47:37.943Z,100091.19
2022-10-13T00:48:40.547Z,100085.25
2022-10-13T00:49:42.079Z,100093.09
2022-10-13T00:50:44.295Z,100088.47
2022-10-13T00:51:50.471Z,100090.25
2022-10-13T00:52:54.092Z,100086.78
2022-10-13T00:53:59.332Z,100085.03
2022-10-13T00:55:02.688Z,100085.03
2022-10-13T00:56:09.307Z,100084.81
2022-10-13T00:57:10.910Z,100080.19
2022-10-13T00:58:15.920Z,100082.03
2022-10-13T00:59:22.802Z,100079.59
2022-10-13T01:00:25.259Z,100079.72
2022-10-13T01:01:26.647Z,100077.13
2022-10-13T01:02:30.965Z,100075.91
2022-10-13T01:03:32.930Z,100075.44
2022-10-13T01:04:38.370Z,100077.81
2022-10-13T01:05:41.626Z,100074.38
2022-10-13T01:06:43.440Z,100075.50
2022-10-13T01:07:49.944Z,100070.13
2022-10-13T01:08:51.486Z,100070.22
2022-10-13T01:09:53.047Z,100067.41
2022-10-13T01:11:16.155Z,100062.84
2022-10-13T01:12:20.694Z,100072.44
2022-10-13T01:13:34.222Z,100063.69
2022-10-13T01:14:53.007Z,100058.41
2022-10-13T01:16:05.467Z,100060.00
2022-10-13T01:17:39.065Z,100062.00
2022-10-13T01:18:43.257Z,100058.72
2022-10-13T01:20:03.275Z,100060.75
2022-10-13T01:21:13.859Z,100056.22
2022-10-13T01:22:34.043Z,100053.78
2022-10-13T01:24:20.913Z,100058.25
2022-10-13T01:25:23.390Z,100051.75
2022-10-13T01:26:24.714Z,100052.03
2022-10-13T01:27:33.582Z,100054.75
2022-10-13T01:28:51.536Z,100052.34
2022-10-13T01:30:16.434Z,100062.13
2022-10-13T01:31:32.776Z,100062.31
2022-10-13T01:33:08.748Z,100058.50
2022-10-13T01:34:20.991Z,100054.72
2022-10-13T01:35:37.702Z,100055.00
2022-10-13T01:36:47.805Z,100050.00
2022-10-13T01:38:21.947Z,100058.00
2022-10-13T01:39:31.688Z,100050.16
2022-10-13T01:40:42.768Z,100053.31
2022-10-13T01:41:49.636Z,100056.41
2022-10-13T01:43:04.534Z,100051.00
2022-10-13T01:44:11.278Z,100049.22
2022-10-13T01:45:17.715Z,100048.81
2022-10-13T01:46:26.532Z,100045.66
2022-10-13T01:47:31.345Z,100044.16
2022-10-13T01:48:35.759Z,100046.28
2022-10-13T01:49:38.892Z,100047.25
2022-10-13T01:50:40.650Z,100051.41
2022-10-13T01:51:42.665Z,100036.28
2022-10-13T01:52:45.362Z,100044.44
2022-10-13T01:53:48.195Z,100045.50
2022-10-13T01:54:54.196Z,100040.69
2022-10-13T01:55:59.150Z,100041.22
2022-10-13T01:57:00.978Z,100031.72
2022-10-13T01:58:02.422Z,100043.94
2022-10-13T01:59:06.982Z,100040.47
2022-10-13T02:00:17.050Z,100030.91
2022-10-13T02:01:48.299Z,100034.44
2022-10-13T02:03:07.417Z,100037.94
2022-10-13T02:04:11.585Z,100038.78
2022-10-13T02:05:33.080Z,100029.38
2022-10-13T02:06:44.286Z,100035.03
2022-10-13T02:07:54.219Z,100036.44
2022-10-13T02:09:24.711Z,100037.16
2022-10-13T02:10:33.065Z,100035.44
2022-10-13T02:11:34.538Z,100028.63
2022-10-13T02:12:39.763Z,100031.06
2022-10-13T02:13:52.793Z,100033.75
2022-10-13T02:14:59.046Z,100028.63
2022-10-13T02:16:01.805Z,100033.06
2022-10-13T02:17:05.115Z,100032.44
2022-10-13T02:18:12.049Z,100027.38
2022-10-13T02:19:16.663Z,100024.56
2022-10-13T02:20:20.371Z,100030.75
2022-10-13T02:21:21.809Z,100026.44
2022-10-13T02:22:29.658Z,100023.78
2022-10-13T02:23:34.105Z,100026.44
2022-10-13T02:24:35.682Z,100021.19
2022-10-13T02:25:37.502Z,100022.66
2022-10-13T02:26:39.919Z,100017.50
2022-10-13T02:27:41.585Z,100013.00
2022-10-13T02:28:43.218Z,100011.09
2022-10-13T02:29:55.828Z,100016.91
2022-10-13T02:31:02.011Z,100008.00
2022-10-13T02:32:03.457Z,100013.53
2022-10-13T02:33:04.799Z,100006.34
2022-10-13T02:34:06.728Z,100009.09
2022-10-13T02:35:08.560Z,100010.09
2022-10-13T02:36:10.181Z,100013.63
2022-10-13T02:37:11.744Z,100006.72
2022-10-13T02:38:13.160Z,100009.41
2022-10-13T02:39:14.551Z,100006.84
2022-10-13T02:40:16.032Z,100011.38
2022-10-13T02:41:17.462Z,100012.06
2022-10-13T02:42:19.253Z,100004.19
2022-10-13T02:43:20.925Z,100002.66
2022-10-13T02:44:22.428Z,100002.50
2022-10-13T02:45:23.932Z,99993.75
2022-10-13T02:46:27.794Z,99998.81
2022-10-13T02:47:29.140Z,99998.00
2022-10-13T02:48:30.616Z,99995.44
2022-10-13T02:49:31.934Z,100005.59
2022-10-13T02:50:33.418Z,100006.47
2022-10-13T02:51:39.679Z,100003.97
2022-10-13T02:52:41.684Z,99999.59
2022-10-13T02:53:43.028Z,100005.13
2022-10-13T02:54:44.496Z,100007.66
2022-10-13T02:55:45.812Z,99999.34
2022-10-13T02:56:47.229Z,100000.88
2022-10-13T02:57:48.560Z,100010.59
2022-10-13T02:58:49.993Z,100004.75
2022-10-13T02:59:51.380Z,100011.59
2022-10-13T03:00:52.818Z,100012.00
2022-10-13T03:01:54.180Z,100006.44
2022-10-13T03:02:56.323Z,100013.06
2022-10-13T03:03:57.771Z,100007.56
2022-10-13T03:04:59.115Z,100013.47
2022-10-13T03:06:00.701Z,100009.94
2022-10-13T03:07:03.345Z,100012.69
2022-10-13T03:08:04.740Z,100016.13
2022-10-13T03:09:06.247Z,100009.03
2022-10-13T03:10:08.091Z,100014.16
2022-10-13T03:11:09.636Z,100015.00
2022-10-13T03:12:11.049Z,100011.56
2022-10-13T03:13:12.396Z,100015.00
2022-10-13T03:14:13.977Z,100012.59
2022-10-13T03:15:15.482Z,100016.94
2022-10-13T03:16:17.082Z,100010.56
2022-10-13T03:17:18.520Z,100010.44
2022-10-13T03:18:20.010Z,100009.28
2022-10-13T03:19:22.726Z,100011.59
2022-10-13T03:20:24.061Z,100009.91
2022-10-13T03:21:25.508Z,100002.09
2022-10-13T03:22:26.854Z,100008.81
2022-10-13T03:23:28.540Z,100009.91
2022-10-13T03:24:30.110Z,100011.69
2022-10-13T03:25:31.540Z,100014.19
2022-10-13T03:26:33.652Z,100015.19
2022-10-13T03:27:34.987Z,100011.75
2022-10-13T03:28:36.458Z,100017.09
2022-10-13T03:29:37.996Z,100010.13
2022-10-13T03:30:39.406Z,100010.22
2022-10-13T03:31:40.766Z,100011.75
2022-10-13T03:32:42.207Z,100011.59
2022-10-13T03:33:43.715Z,100006.53
2022-10-13T03:34:45.118Z,100012.72
2022-10-13T03:35:46.468Z,100006.53
2022-10-13T03:36:47.966Z,99996.88
2022-10-13T03:37:49.300Z,100005.81
2022-10-13T03:38:50.754Z,100010.28
2022-10-13T03:39:52.093Z,100006.03
2022-10-13T03:40:53.530Z,100000.22
2022-10-13T03:41:54.909Z,100004.56
2022-10-13T03:42:56.339Z,100006.50
2022-10-13T03:43:57.659Z,100002.44
2022-10-13T03:44:59.098Z,100000.88
2022-10-13T03:46:01.215Z,100006.72
2022-10-13T03:47:02.579Z,100000.88
2022-10-13T03:48:04.067Z,100000.16
2022-10-13T03:49:05.430Z,100000.16
2022-10-13T03:50:07.472Z,100000.97
2022-10-13T03:51:11.734Z,100002.44
2022-10-13T03:52:19.557Z,100004.19
2022-10-13T03:53:21.316Z,100006.78
2022-10-13T03:54:22.737Z,100005.03
2022-10-13T03:55:26.477Z,100002.44
2022-10-13T03:56:28.265Z,99990.25
2022-10-13T03:57:30.140Z,99996.44
2022-10-13T03:58:31.693Z,99995.44
2022-10-13T03:59:36.771Z,99994.84
2022-10-13T04:00:38.574Z,99999.03
2022-10-13T04:01:40.418Z,99993.69
2022-10-13T04:02:42.239Z,100000.59
2022-10-13T04:03:43.655Z,99998.81
2022-10-13T04:04:45.021Z,99994.47
2022-10-13T04:05:47.171Z,99997.84
2022-10-13T04:06:49.654Z,99994.38
2022-10-13T04:07:51.001Z,99996.84
2022-10-13T04:08:59.780Z,99989.88
2022-10-13T04:10:01.105Z,99992.19
2022-10-13T04:11:06.194Z,99996.69
2022-10-13T04:12:07.975Z,99992.25
2022-10-13T04:13:09.391Z,99993.03
2022-10-13T04:14:13.031Z,100001.59
2022-10-13T04:15:14.437Z,99994.72
2022-10-13T04:16:21.809Z,99994.72
2022-10-13T04:17:23.220Z,100000.00
2022-10-13T04:18:24.563Z,99995.72
2022-10-13T04:19:25.984Z,99987.59
2022-10-13T04:20:27.823Z,99988.13
2022-10-13T04:21:31.475Z,99993.44
2022-10-13T04:22:33.036Z,99983.09
2022-10-13T04:23:34.522Z,99983.38
2022-10-13T04:24:35.902Z,99989.66
2022-10-13T04:25:37.682Z,99988.19
2022-10-13T04:26:40.168Z,99991.72
2022-10-13T04:27:41.581Z,99989.09
2022-10-13T04:28:42.965Z,99989.97
2022-10-13T04:29:44.432Z,99980.38
2022-10-13T04:30:49.262Z,99978.41
2022-10-13T04:31:51.059Z,99975.94
2022-10-13T04:32:52.398Z,99973.41
2022-10-13T04:33:54.028Z,99977.06
2022-10-13T04:34:55.435Z,99983.84
2022-10-13T04:35:56.906Z,99992.78
2022-10-13T04:36:58.329Z,99996.78
2022-10-13T04:37:59.654Z,99994.75
2022-10-13T04:39:01.067Z,99993.38
2022-10-13T04:40:02.451Z,99997.94
2022-10-13T04:41:07.922Z,99994.84
2022-10-13T04:42:09.320Z,99988.72
2022-10-13T04:43:12.639Z,99990.78
2022-10-13T04:44:13.992Z,99990.63
2022-10-13T04:45:15.550Z,99984.19
2022-10-13T04:46:23.344Z,99988.84
2022-10-13T04:47:25.825Z,99988.66
2022-10-13T04:48:27.502Z,99986.81
2022-10-13T04:49:28.937Z,99982.25
2022-10-13T04:50:30.271Z,99983.59
2022-10-13T04:51:35.111Z,99982.41
2022-10-13T04:52:36.609Z,99985.75
2022-10-13T04:53:38.792Z,99986.94
2022-10-13T04:54:43.505Z,99981.19
2022-10-13T04:55:44.966Z,99986.59
2022-10-13T04:56:46.325Z,99991.81
2022-10-13T04:57:47.726Z,99986.53
2022-10-13T04:58:49.499Z,99985.78
2022-10-13T04:59:50.914Z,99988.59
2022-10-13T05:00:52.290Z,99994.97
2022-10-13T05:01:53.775Z,99988.38
2022-10-13T05:02:55.116Z,99991.38
2022-10-13T05:03:59.335Z,99985.63
2022-10-13T05:05:00.782Z,99989.19
2022-10-13T05:06:02.157Z,99994.97
2022-10-13T05:07:17.679Z,99993.13
2022-10-13T05:08:20.642Z,99981.84
2022-10-13T05:09:22.027Z,99982.31
2022-10-13T05:10:23.356Z,99988.09
2022-10-13T05:11:25.728Z,99992.53
2022-10-13T05:12:27.127Z,99989.16
2022-10-13T05:13:29.144Z,99991.38
2022-10-13T05:14:32.503Z,99989.13
2022-10-13T05:15:34.693Z,99992.34
2022-10-13T05:16:36.034Z,99988.63
2022-10-13T05:17:37.432Z,99984.84
2022-10-13T05:18:43.234Z,99988.19
2022-10-13T05:19:44.664Z,99984.56
2022-10-13T05:20:46.009Z,99985.41
2022-10-13T05:21:47.439Z,99979.91
2022-10-13T05:22:48.772Z,99989.97
2022-10-13T05:23:50.286Z,99986.25
2022-10-13T05:24:51.738Z,99989.72
2022-10-13T05:25:53.079Z,99979.66
2022-10-13T05:26:57.277Z,99990.78
2022-10-13T05:27:58.709Z,99988.03
2022-10-13T05:29:00.814Z,99997.72
2022-10-13T05:30:04.947Z,99993.06
2022-10-13T05:31:10.907Z,99991.75
2022-10-13T05:32:12.336Z,99991.38
2022-10-13T05:33:13.689Z,99991.00
2022-10-13T05:34:15.115Z,99983.75
2022-10-13T05:35:16.503Z,99989.44
2022-10-13T05:36:20.432Z,99985.38
2022-10-13T05:37:21.864Z,99978.72
2022-10-13T05:38:25.999Z,99982.13
2022-10-13T05:39:28.367Z,99978.56
2022-10-13T05:40:29.763Z,99980.16
2022-10-13T05:41:34.796Z,99974.81
2022-10-13T05:42:38.821Z,99980.41
2022-10-13T05:43:40.976Z,99975.03
2022-10-13T05:44:42.550Z,99985.59
2022-10-13T05:45:44.052Z,99982.16
2022-10-13T05:46:45.464Z,99985.75
2022-10-13T05:47:46.844Z,99981.34
2022-10-13T05:48:48.490Z,99985.97
2022-10-13T05:49:49.951Z,99983.25
2022-10-13T05:50:51.431Z,99987.66
2022-10-13T05:51:57.135Z,99982.53
2022-10-13T05:52:59.444Z,99979.53
2022-10-13T05:54:18.680Z,99981.25
2022-10-13T05:55:20.182Z,99984.78
2022-10-13T05:56:30.160Z,99988.88
2022-10-13T05:57:37.111Z,99988.94
2022-10-13T05:58:45.706Z,99989.88
2022-10-13T06:00:02.959Z,99991.31
2022-10-13T06:01:17.599Z,99986.47
2022-10-13T06:02:23.714Z,100000.03
2022-10-13T06:03:25.570Z,99996.94
2022-10-13T06:04:34.356Z,99990.47
2022-10-13T06:05:36.083Z,99992.16
2022-10-13T06:06:37.747Z,99993.66
2022-10-13T06:07:39.210Z,99990.91
2022-10-13T06:08:40.757Z,99990.22
2022-10-13T06:09:43.065Z,99991.63
2022-10-13T06:10:44.867Z,99989.94
2022-10-13T06:11:46.282Z,99989.09
2022-10-13T06:12:47.628Z,99984.03
2022-10-13T06:13:49.120Z,99987.31
2022-10-13T06:14:50.553Z,99983.38
2022-10-13T06:15:51.884Z,99982.63
2022-10-13T06:16:53.278Z,99989.44
2022-10-13T06:17:54.637Z,99988.38
2022-10-13T06:18:56.051Z,99990.78
2022-10-13T06:19:58.280Z,99982.66
2022-10-13T06:20:59.601Z,99983.78
2022-10-13T06:22:03.637Z,99979.94
2022-10-13T06:23:05.463Z,99979.63
2022-10-13T06:24:07.065Z,99983.53
2022-10-13T06:25:09.044Z,99976.94
2022-10-13T06:26:10.488Z,99978.91
2022-10-13T06:27:11.942Z,99979.44
2022-10-13T06:28:13.425Z,99980.19
2022-10-13T06:29:14.876Z,99976.19
2022-10-13T06:30:16.254Z,99977.75
2022-10-13T06:31:17.680Z,99979.19
2022-10-13T06:32:19.383Z,99976.25
2022-10-13T06:33:21.433Z,99978.13
2022-10-13T06:34:22.831Z,99975.38
2022-10-13T06:35:24.162Z,99974.28
2022-10-13T06:36:25.664Z,99978.31
2022-10-13T06:37:27.612Z,99976.50
2022-10-13T06:38:29.214Z,99974.22
2022-10-13T06:39:30.612Z,99986.81
2022-10-13T06:40:33.562Z,99976.84
2022-10-13T06:41:34.916Z,99982.88
2022-10-13T06:42:36.337Z,99982.78
2022-10-13T06:43:44.037Z,99973.22
2022-10-13T06:44:45.537Z,99974.66
2022-10-13T06:45:46.889Z,99978.13
2022-10-13T06:46:48.273Z,99974.13
2022-10-13T06:47:49.621Z,99980.66
2022-10-13T06:48:51.600Z,99970.91
2022-10-13T06:49:53.057Z,99972.59
2022-10-13T06:50:54.436Z,99972.00
2022-10-13T06:51:55.868Z,99972.50
2022-10-13T06:52:57.203Z,99966.38
2022-10-13T06:53:58.628Z,99967.13
2022-10-13T06:55:00.419Z,99973.50
2022-10-13T06:56:06.123Z,99962.44
2022-10-13T06:57:07.562Z,99961.38
2022-10-13T06:58:09.917Z,99967.59
2022-10-13T06:59:11.747Z,99963.81
2022-10-13T07:00:13.896Z,99959.63
2022-10-13T07:01:15.426Z,99965.97
2022-10-13T07:02:16.868Z,99952.97
2022-10-13T07:03:18.481Z,99966.78
2022-10-13T07:04:19.910Z,99962.22
2022-10-13T07:05:21.247Z,99965.22
2022-10-13T07:06:22.858Z,99961.84
2022-10-13T07:07:25.357Z,99961.91
2022-10-13T07:08:29.099Z,99956.75
2022-10-13T07:09:31.412Z,99961.34
2022-10-13T07:10:34.137Z,99951.19
2022-10-13T07:11:35.669Z,99952.72
2022-10-13T07:12:37.095Z,99950.00
2022-10-13T07:13:42.241Z,99958.63
2022-10-13T07:14:48.404Z,99959.28
2022-10-13T07:15:49.877Z,99955.56
2022-10-13T07:16:51.298Z,99962.66
2022-10-13T07:17:52.660Z,99964.06
2022-10-13T07:18:54.097Z,99962.56
2022-10-13T07:19:57.907Z,99959.34
2022-10-13T07:21:00.700Z,99959.78
2022-10-13T07:22:02.104Z,99959.22
2022-10-13T07:23:03.502Z,99953.63
2022-10-13T07:24:05.213Z,99954.13
2022-10-13T07:25:07.369Z,99949.44
2022-10-13T07:26:10.321Z,99946.53
2022-10-13T07:27:11.755Z,99946.97
2022-10-13T07:28:13.102Z,99951.97
2022-10-13T07:29:14.676Z,99952.25
2022-10-13T07:30:16.519Z,99956.00
2022-10-13T07:31:21.238Z,99950.72
2022-10-13T07:32:22.666Z,99961.31
2022-10-13T07:33:23.977Z,99954.03
2022-10-13T07:34:25.412Z,99960.88
2022-10-13T07:35:30.424Z,99957.81
2022-10-13T07:36:33.382Z,99954.31
2022-10-13T07:37:35.067Z,99956.09
2022-10-13T07:38:36.533Z,99949.41
2022-10-13T07:39:37.953Z,99953.78
2022-10-13T07:40:39.427Z,99948.91
2022-10-13T07:41:41.877Z,99942.47
2022-10-13T07:42:43.205Z,99940.53
2022-10-13T07:43:44.666Z,99944.41
2022-10-13T07:44:46.083Z,99935.63
2022-10-13T07:45:47.436Z,99939.84
2022-10-13T07:46:52.527Z,99947.50
2022-10-13T07:47:54.076Z,99941.47
2022-10-13T07:48:55.600Z,99939.28
2022-10-13T07:49:57.051Z,99934.09
2022-10-13T07:50:58.733Z,99931.28
2022-10-13T07:52:00.211Z,99932.00
2022-10-13T07:53:01.639Z,99938.06
2022-10-13T07:54:03.195Z,99928.91
2022-10-13T07:55:05.414Z,99937.63
2022-10-13T07:56:09.106Z,99934.38
2022-10-13T07:57:10.526Z,99934.81
2022-10-13T07:58:11.947Z,99930.25
2022-10-13T07:59:13.393Z,99933.47
2022-10-13T08:00:15.047Z,99925.47
2022-10-13T08:01:17.230Z,99936.06
2022-10-13T08:02:19.046Z,99926.78
2022-10-13T08:03:20.668Z,99928.13
2022-10-13T08:04:22.001Z,99929.38
2022-10-13T08:05:23.425Z,99925.50
2022-10-13T08:06:24.776Z,99923.28
2022-10-13T08:07:28.596Z,99922.44
2022-10-13T08:08:30.823Z,99919.66
2022-10-13T08:09:32.276Z,99927.19
2022-10-13T08:10:34.190Z,99914.22
2022-10-13T08:11:35.520Z,99921.22
2022-10-13T08:12:36.969Z,99914.22
2022-10-13T08:13:40.448Z,99914.34
2022-10-13T08:14:50.804Z,99917.38
2022-10-13T08:15:52.257Z,99919.00
2022-10-13T08:16:53.829Z,99916.03
2022-10-13T08:17:55.273Z,99920.13
2022-10-13T08:18:59.750Z,99915.81
2022-10-13T08:20:01.182Z,99917.31
2022-10-13T08:21:33.147Z,99914.53
2022-10-13T08:22:28.185Z,99914.56
2022-10-13T08:23:30.047Z,99913.16
2022-10-13T08:24:31.474Z,99912.78
2022-10-13T08:25:36.595Z,99916.97
2022-10-13T08:26:38.597Z,99904.72
2022-10-13T08:27:50.638Z,99911.44
2022-10-13T08:30:14.729Z,99908.28
2022-10-13T08:31:16.613Z,99905.63
2022-10-13T08:32:18.584Z,99897.28
2022-10-13T08:33:20.312Z,99906.75
2022-10-13T08:34:25.268Z,99906.81
2022-10-13T08:35:29.164Z,99906.44
2022-10-13T08:36:32.781Z,99908.28
2022-10-13T08:37:34.200Z,99911.84
2022-10-13T08:38:35.542Z,99913.44
2022-10-13T08:39:36.971Z,99905.72
2022-10-13T08:40:39.162Z,99908.25
2022-10-13T08:41:43.511Z,99899.59
2022-10-13T08:42:46.230Z,99905.41
2022-10-13T08:44:33.090Z,99898.50
2022-10-13T08:45:40.354Z,99897.03
2022-10-13T08:47:22.762Z,99898.16
2022-10-13T08:48:40.389Z,99894.47
2022-10-13T08:49:43.147Z,99898.13
2022-10-13T08:50:47.625Z,99899.19
2022-10-13T08:51:49.263Z,99889.34
2022-10-13T08:52:57.809Z,99885.84
2022-10-13T08:53:59.435Z,99897.09
2022-10-13T08:55:00.898Z,99883.88
2022-10-13T08:56:24.696Z,99887.03
2022-10-13T08:57:26.222Z,99885.69
2022-10-13T08:58:33.765Z,99881.66
2022-10-13T08:59:35.194Z,99882.19
2022-10-13T09:00:37.450Z,99888.31
2022-10-13T09:01:39.029Z,99876.34
2022-10-13T09:02:43.767Z,99881.81
2022-10-13T09:03:54.526Z,99879.75
2022-10-13T09:04:58.762Z,99879.75
2022-10-13T09:06:19.366Z,99878.50
2022-10-13T09:07:29.471Z,99877.94
2022-10-13T09:08:40.271Z,99874.59
2022-10-13T09:09:41.825Z,99878.91
2022-10-13T09:10:51.247Z,99868.13
2022-10-13T09:11:53.479Z,99869.97
2022-10-13T09:12:55.248Z,99867.63
2022-10-13T09:13:59.880Z,99871.00
2022-10-13T09:15:06.742Z,99872.00
2022-10-13T09:16:08.336Z,99877.03
2022-10-13T09:17:17.547Z,99879.41
2022-10-13T09:18:19.027Z,99873.69
2022-10-13T09:19:30.829Z,99878.44
2022-10-13T09:20:32.395Z,99879.97
2022-10-13T09:21:34.054Z,99873.56
2022-10-13T09:22:39.239Z,99872.06
2022-10-13T09:23:41.993Z,99872.19
2022-10-13T09:24:43.596Z,99866.31
2022-10-13T09:25:49.163Z,99873.28
2022-10-13T09:27:04.238Z,99862.69
2022-10-13T09:28:24.274Z,99866.91
2022-10-13T09:29:26.657Z,99869.66
2022-10-13T09:30:35.674Z,99866.06
2022-10-13T09:31:38.235Z,99864.66
2022-10-13T09:32:42.933Z,99867.56
2022-10-13T09:33:45.889Z,99860.03
2022-10-13T09:34:48.297Z,99867.84
2022-10-13T09:36:09.371Z,99859.75
2022-10-13T09:37:25.022Z,99851.81
2022-10-13T09:38:27.245Z,99856.16
2022-10-13T09:39:30.403Z,99862.66
2022-10-13T09:40:33.461Z,99856.97
2022-10-13T09:41:36.001Z,99848.16
2022-10-13T09:42:38.127Z,99847.88
2022-10-13T09:43:45.993Z,99857.75
2022-10-13T09:44:58.415Z,99847.72
2022-10-13T09:46:04.331Z,99855.66
2022-10-13T09:47:05.785Z,99850.09
2022-10-13T09:48:16.068Z,99853.13
2022-10-13T09:49:37.170Z,99850.97
2022-10-13T09:50:49.147Z,99852.63
2022-10-13T09:51:51.016Z,99847.03
2022-10-13T09:53:15.835Z,99854.41
2022-10-13T09:54:33.679Z,99851.38
2022-10-13T09:55:36.503Z,99844.00
2022-10-13T09:56:47.503Z,99847.59
2022-10-13T09:57:51.168Z,99836.41
2022-10-13T09:59:11.586Z,99837.97
2022-10-13T10:00:13.049Z,99836.31
2022-10-13T10:01:22.557Z,99832.09
2022-10-13T10:02:32.473Z,99842.66
2022-10-13T10:03:37.056Z,99833.94
2022-10-13T10:04:40.767Z,99836.47
2022-10-13T10:05:42.170Z,99830.47
2022-10-13T10:06:45.317Z,99835.97
2022-10-13T10:07:47.471Z,99830.94
2022-10-13T10:09:04.332Z,99833.75
2022-10-13T10:10:18.699Z,99838.47
2022-10-13T10:11:27.939Z,99834.66
2022-10-13T10:12:32.132Z,99835.75
2022-10-13T10:13:33.555Z,99829.16
2022-10-13T10:14:38.163Z,99833.78
2022-10-13T10:16:00.710Z,99820.81
2022-10-13T10:17:12.063Z,99819.16
2022-10-13T10:18:28.104Z,99813.94
2022-10-13T10:19:44.304Z,99808.38
2022-10-13T10:20:58.741Z,99808.88
2022-10-13T10:22:35.412Z,99807.56
2022-10-13T10:23:49.013Z,99816.19
2022-10-13T10:25:03.088Z,99810.06
2022-10-13T10:26:33.942Z,99815.91
2022-10-13T10:27:44.298Z,99808.56
2022-10-13T10:29:01.074Z,99810.31
2022-10-13T10:30:06.383Z,99807.44
2022-10-13T10:31:37.860Z,99803.53
2022-10-13T10:33:18.319Z,99799.03
2022-10-13T10:34:37.007Z,99803.88
2022-10-13T10:35:48.589Z,99809.06
2022-10-13T10:37:05.958Z,99798.94
2022-10-13T10:38:26.522Z,99796.69
2022-10-13T10:39:36.513Z,99794.75
2022-10-13T10:41:01.101Z,99798.13
2022-10-13T10:42:05.214Z,99799.13
2022-10-13T10:43:25.438Z,99797.00
2022-10-13T10:44:32.711Z,99794.34
2022-10-13T10:45:38.674Z,99789.38
2022-10-13T10:46:47.969Z,99782.38
2022-10-13T10:47:55.290Z,99784.44
2022-10-13T10:49:04.628Z,99783.59
2022-10-13T10:50:07.778Z,99780.88
2022-10-13T10:51:11.112Z,99778.75
2022-10-13T10:52:24.530Z,99781.09
2022-10-13T10:53:34.266Z,99784.09
2022-10-13T10:54:49.900Z,99776.31
2022-10-13T10:56:03.978Z,99779.50
2022-10-13T10:57:17.319Z,99776.56
2022-10-13T10:58:34.300Z,99780.69
2022-10-13T10:59:57.879Z,99771.03
2022-10-13T11:01:15.055Z,99775.41
2022-10-13T11:02:35.147Z,99776.47
2022-10-13T11:03:58.407Z,99776.13
2022-10-13T11:05:05.167Z,99772.31
2022-10-13T11:06:16.957Z,99773.47
2022-10-13T11:07:24.385Z,99768.78
2022-10-13T11:08:47.080Z,99765.31
2022-10-13T11:09:52.687Z,99763.84
2022-10-13T11:11:13.962Z,99768.50
2022-10-13T11:12:21.919Z,99760.16
2022-10-13T11:13:23.844Z,99760.47
2022-10-13T11:14:28.928Z,99766.94
2022-10-13T11:15:42.693Z,99763.63
2022-10-13T11:17:03.575Z,99758.94
2022-10-13T11:18:43.451Z,99760.56
2022-10-13T11:19:46.118Z,99756.41
2022-10-13T11:20:56.889Z,99755.44
2022-10-13T11:21:58.252Z,99751.19
2022-10-13T11:22:59.562Z,99747.53
2022-10-13T11:24:02.187Z,99748.53
2022-10-13T11:25:41.893Z,99749.88
2022-10-13T11:26:43.659Z,99740.22
2022-10-13T11:27:45.191Z,99732.25
2022-10-13T11:28:48.097Z,99736.91
2022-10-13T11:29:58.285Z,99738.75
2022-10-13T11:31:05.661Z,99730.94
2022-10-13T11:32:29.619Z,99728.44
2022-10-13T11:33:40.093Z,99723.97
2022-10-13T11:35:03.249Z,99723.97
2022-10-13T11:36:36.678Z,99720.97
2022-10-13T11:38:07.835Z,99718.50
2022-10-13T11:39:19.174Z,99718.97
2022-10-13T11:40:54.443Z,99720.47
2022-10-13T11:42:20.582Z,99715.47
2022-10-13T11:43:41.931Z,99715.81
2022-10-13T11:44:56.535Z,99717.31
2022-10-13T11:46:08.321Z,99718.97
2022-10-13T11:47:55.495Z,99715.50
2022-10-13T11:49:15.593Z,99710.16
2022-10-13T11:50:25.875Z,99709.50
2022-10-13T11:51:35.581Z,99708.66
2022-10-13T11:52:55.302Z,99705.00
2022-10-13T11:53:59.533Z,99707.00
2022-10-13T11:55:15.066Z,99703.34
2022-10-13T11:56:54.976Z,99705.00
2022-10-13T11:58:17.113Z,99696.53
2022-10-13T11:59:25.663Z,99699.03
2022-10-13T12:00:27.107Z,99692.03
2022-10-13T12:01:29.321Z,99688.53
2022-10-13T12:02:30.763Z,99687.38
2022-10-13T12:03:35.359Z,99693.50
2022-10-13T12:04:44.027Z,99691.84
2022-10-13T12:05:49.447Z,99686.53
2022-10-13T12:06:58.056Z,99682.22
2022-10-13T12:08:03.941Z,99688.69
2022-10-13T12:09:16.710Z,99693.69
2022-10-13T12:10:23.680Z,99680.91
2022-10-13T12:11:28.859Z,99684.72
2022-10-13T12:12:30.357Z,99679.69
2022-10-13T12:13:33.884Z,99685.22
2022-10-13T12:14:41.499Z,99677.75
2022-10-13T12:15:44.405Z,99672.41
2022-10-13T12:16:53.561Z,99674.22
2022-10-13T12:17:55.030Z,99671.25
2022-10-13T12:19:21.145Z,99675.56
2022-10-13T12:20:26.524Z,99672.25
2022-10-13T12:21:27.929Z,99667.75
2022-10-13T12:22:29.819Z,99674.56
2022-10-13T12:23:32.410Z,99676.38
2022-10-13T12:24:33.816Z,99677.38
2022-10-13T12:25:35.864Z,99666.06
2022-10-13T12:26:37.413Z,99670.56
2022-10-13T12:27:49.804Z,99666.75
2022-10-13T12:29:10.500Z,99661.06
2022-10-13T12:30:35.196Z,99658.75
2022-10-13T12:31:48.649Z,99660.91
2022-10-13T12:32:52.539Z,99659.47
2022-10-13T12:33:59.280Z,99652.78
2022-10-13T12:35:17.562Z,99654.59
2022-10-13T12:36:21.844Z,99659.91
2022-10-13T12:37:28.299Z,99655.09
2022-10-13T12:38:29.889Z,99659.09
2022-10-13T12:39:34.062Z,99653.28
2022-10-13T12:40:35.918Z,99647.50
2022-10-13T12:41:42.769Z,99656.47
2022-10-13T12:42:44.729Z,99653.97
2022-10-13T12:43:46.641Z,99649.63
2022-10-13T12:44:48.271Z,99649.78
2022-10-13T12:45:49.783Z,99644.59
2022-10-13T12:46:53.982Z,99645.44
2022-10-13T12:47:55.494Z,99640.63